sensor_id;sensor_type;location;lat;lon;timestamp;P1;durP1;ratioP1;P2;durP2;ratioP2
18140;SDS011;9196;49.194;12.526;2023-06-14T00:01:43;5.00;;;3.03;;
18140;SDS011;9196;49.194;12.526;2023-06-14T00:04:11;3.23;;;3.03;;
18140;SDS011;9196;49.194;12.526;2023-06-14T00:06:38;7.07;;;3.30;;
18140;SDS011;9196;49.194;12.526;2023-06-14T00:09:06;9.20;;;3.70;;
18140;SDS011;9196;49.194;12.526;2023-06-14T00:11:34;3.40;;;3.17;;
18140;SDS011;9196;49.194;12.526;2023-06-14T00:14:02;8.50;;;3.40;;
18140;SDS011;9196;49.194;12.526;2023-06-14T00:16:29;6.27;;;3.63;;
18140;SDS011;9196;49.194;12.526;2023-06-14T00:18:57;3.23;;;2.93;;
18140;SDS011;9196;49.194;12.526;2023-06-14T00:21:24;3.33;;;3.13;;
18140;SDS011;9196;49.194;12.526;2023-06-14T00:23:54;6.23;;;3.00;;
18140;SDS011;9196;49.194;12.526;2023-06-14T00:26:21;3.50;;;3.20;;
18140;SDS011;9196;49.194;12.526;2023-06-14T00:28:48;3.27;;;3.07;;
18140;SDS011;9196;49.194;12.526;2023-06-14T00:31:16;3.27;;;2.97;;
18140;SDS011;9196;49.194;12.526;2023-06-14T00:33:43;5.03;;;3.27;;
18140;SDS011;9196;49.194;12.526;2023-06-14T00:36:10;5.73;;;3.90;;
18140;SDS011;9196;49.194;12.526;2023-06-14T00:38:36;3.80;;;3.37;;
18140;SDS011;9196;49.194;12.526;2023-06-14T00:41:03;4.67;;;3.87;;
18140;SDS011;9196;49.194;12.526;2023-06-14T00:43:30;7.43;;;4.13;;
18140;SDS011;9196;49.194;12.526;2023-06-14T00:45:57;6.40;;;4.20;;
18140;SDS011;9196;49.194;12.526;2023-06-14T00:48:25;3.20;;;2.90;;
18140;SDS011;9196;49.194;12.526;2023-06-14T00:50:53;3.90;;;3.60;;
18140;SDS011;9196;49.194;12.526;2023-06-14T00:53:21;4.37;;;3.73;;
18140;SDS011;9196;49.194;12.526;2023-06-14T00:55:50;4.47;;;4.07;;
18140;SDS011;9196;49.194;12.526;2023-06-14T00:58:17;4.90;;;3.90;;
18140;SDS011;9196;49.194;12.526;2023-06-14T01:00:44;4.63;;;3.80;;
18140;SDS011;9196;49.194;12.526;2023-06-14T01:03:10;6.13;;;3.97;;
18140;SDS011;9196;49.194;12.526;2023-06-14T01:05:39;3.30;;;3.10;;
18140;SDS011;9196;49.194;12.526;2023-06-14T01:08:14;3.17;;;2.97;;
18140;SDS011;9196;49.194;12.526;2023-06-14T01:10:52;4.10;;;3.70;;
18140;SDS011;9196;49.194;12.526;2023-06-14T01:13:24;4.77;;;3.30;;
18140;SDS011;9196;49.194;12.526;2023-06-14T01:15:55;4.03;;;3.23;;
18140;SDS011;9196;49.194;12.526;2023-06-14T01:18:22;5.20;;;3.80;;
18140;SDS011;9196;49.194;12.526;2023-06-14T01:20:52;6.37;;;3.37;;
18140;SDS011;9196;49.194;12.526;2023-06-14T01:23:22;6.17;;;3.10;;
18140;SDS011;9196;49.194;12.526;2023-06-14T01:25:50;5.93;;;4.10;;
18140;SDS011;9196;49.194;12.526;2023-06-14T01:28:19;5.60;;;3.80;;
18140;SDS011;9196;49.194;12.526;2023-06-14T01:30:47;9.23;;;3.80;;
18140;SDS011;9196;49.194;12.526;2023-06-14T01:33:17;6.57;;;4.47;;
18140;SDS011;9196;49.194;12.526;2023-06-14T01:35:46;4.20;;;3.80;;
18140;SDS011;9196;49.194;12.526;2023-06-14T01:38:17;3.57;;;3.37;;
18140;SDS011;9196;49.194;12.526;2023-06-14T01:40:47;9.87;;;3.93;;
18140;SDS011;9196;49.194;12.526;2023-06-14T01:43:15;5.60;;;4.00;;
18140;SDS011;9196;49.194;12.526;2023-06-14T01:45:44;11.87;;;4.00;;
18140;SDS011;9196;49.194;12.526;2023-06-14T01:48:13;3.93;;;3.53;;
18140;SDS011;9196;49.194;12.526;2023-06-14T01:50:41;5.93;;;3.87;;
18140;SDS011;9196;49.194;12.526;2023-06-14T01:53:08;5.87;;;4.00;;
18140;SDS011;9196;49.194;12.526;2023-06-14T01:55:36;6.50;;;3.90;;
18140;SDS011;9196;49.194;12.526;2023-06-14T01:58:04;4.57;;;3.87;;
18140;SDS011;9196;49.194;12.526;2023-06-14T02:00:31;4.60;;;3.73;;
18140;SDS011;9196;49.194;12.526;2023-06-14T02:02:58;3.93;;;3.43;;
18140;SDS011;9196;49.194;12.526;2023-06-14T02:05:25;4.20;;;3.80;;
18140;SDS011;9196;49.194;12.526;2023-06-14T02:07:52;4.13;;;3.73;;
18140;SDS011;9196;49.194;12.526;2023-06-14T02:10:20;4.37;;;3.97;;
18140;SDS011;9196;49.194;12.526;2023-06-14T02:12:47;5.90;;;3.70;;
18140;SDS011;9196;49.194;12.526;2023-06-14T02:15:15;7.03;;;4.53;;
18140;SDS011;9196;49.194;12.526;2023-06-14T02:17:44;6.03;;;4.40;;
18140;SDS011;9196;49.194;12.526;2023-06-14T02:20:12;7.93;;;4.37;;
18140;SDS011;9196;49.194;12.526;2023-06-14T02:22:39;10.00;;;5.00;;
18140;SDS011;9196;49.194;12.526;2023-06-14T02:25:07;9.33;;;4.50;;
18140;SDS011;9196;49.194;12.526;2023-06-14T02:27:34;8.80;;;4.17;;
18140;SDS011;9196;49.194;12.526;2023-06-14T02:30:01;3.80;;;3.57;;
18140;SDS011;9196;49.194;12.526;2023-06-14T02:32:29;6.40;;;4.70;;
18140;SDS011;9196;49.194;12.526;2023-06-14T02:34:56;5.63;;;4.00;;
18140;SDS011;9196;49.194;12.526;2023-06-14T02:37:23;10.73;;;4.30;;
18140;SDS011;9196;49.194;12.526;2023-06-14T02:39:50;4.50;;;4.10;;
18140;SDS011;9196;49.194;12.526;2023-06-14T02:42:17;4.70;;;4.30;;
18140;SDS011;9196;49.194;12.526;2023-06-14T02:44:43;3.57;;;3.27;;
18140;SDS011;9196;49.194;12.526;2023-06-14T02:47:16;7.67;;;4.03;;
18140;SDS011;9196;49.194;12.526;2023-06-14T02:49:44;4.63;;;4.27;;
18140;SDS011;9196;49.194;12.526;2023-06-14T02:52:11;4.30;;;3.97;;
18140;SDS011;9196;49.194;12.526;2023-06-14T02:54:38;4.10;;;3.80;;
18140;SDS011;9196;49.194;12.526;2023-06-14T02:57:06;5.07;;;4.27;;
18140;SDS011;9196;49.194;12.526;2023-06-14T02:59:33;6.93;;;4.53;;
18140;SDS011;9196;49.194;12.526;2023-06-14T03:02:01;5.13;;;4.47;;
18140;SDS011;9196;49.194;12.526;2023-06-14T03:04:28;4.33;;;4.03;;
18140;SDS011;9196;49.194;12.526;2023-06-14T03:07:03;11.73;;;5.67;;
18140;SDS011;9196;49.194;12.526;2023-06-14T03:09:34;4.60;;;4.20;;
18140;SDS011;9196;49.194;12.526;2023-06-14T03:12:02;4.43;;;4.10;;
18140;SDS011;9196;49.194;12.526;2023-06-14T03:14:30;7.13;;;3.80;;
18140;SDS011;9196;49.194;12.526;2023-06-14T03:16:58;10.43;;;4.30;;
18140;SDS011;9196;49.194;12.526;2023-06-14T03:19:25;6.63;;;4.10;;
18140;SDS011;9196;49.194;12.526;2023-06-14T03:21:52;5.93;;;4.50;;
18140;SDS011;9196;49.194;12.526;2023-06-14T03:24:23;6.70;;;4.60;;
18140;SDS011;9196;49.194;12.526;2023-06-14T03:26:52;6.53;;;5.00;;
18140;SDS011;9196;49.194;12.526;2023-06-14T03:29:19;5.80;;;4.87;;
18140;SDS011;9196;49.194;12.526;2023-06-14T03:31:56;5.90;;;4.23;;
18140;SDS011;9196;49.194;12.526;2023-06-14T03:34:24;5.27;;;4.77;;
18140;SDS011;9196;49.194;12.526;2023-06-14T03:36:51;5.23;;;4.43;;
18140;SDS011;9196;49.194;12.526;2023-06-14T03:39:18;3.97;;;3.67;;
18140;SDS011;9196;49.194;12.526;2023-06-14T03:41:46;14.83;;;4.30;;
18140;SDS011;9196;49.194;12.526;2023-06-14T03:44:14;11.43;;;4.60;;
18140;SDS011;9196;49.194;12.526;2023-06-14T03:46:42;8.83;;;4.40;;
18140;SDS011;9196;49.194;12.526;2023-06-14T03:49:10;8.70;;;5.30;;
18140;SDS011;9196;49.194;12.526;2023-06-14T03:51:37;10.20;;;4.70;;
18140;SDS011;9196;49.194;12.526;2023-06-14T03:54:04;5.90;;;5.20;;
18140;SDS011;9196;49.194;12.526;2023-06-14T03:56:31;5.27;;;4.83;;
18140;SDS011;9196;49.194;12.526;2023-06-14T03:58:59;10.45;;;5.03;;
18140;SDS011;9196;49.194;12.526;2023-06-14T04:01:26;7.03;;;4.80;;
18140;SDS011;9196;49.194;12.526;2023-06-14T04:03:55;7.13;;;5.30;;
18140;SDS011;9196;49.194;12.526;2023-06-14T04:06:22;6.47;;;5.70;;
18140;SDS011;9196;49.194;12.526;2023-06-14T04:08:56;5.80;;;5.00;;
18140;SDS011;9196;49.194;12.526;2023-06-14T04:11:29;6.40;;;5.40;;
18140;SDS011;9196;49.194;12.526;2023-06-14T04:13:56;9.60;;;6.13;;
18140;SDS011;9196;49.194;12.526;2023-06-14T04:16:25;5.83;;;5.23;;
18140;SDS011;9196;49.194;12.526;2023-06-14T04:18:53;6.57;;;4.80;;
18140;SDS011;9196;49.194;12.526;2023-06-14T04:21:23;6.77;;;4.53;;
18140;SDS011;9196;49.194;12.526;2023-06-14T04:23:51;7.10;;;5.13;;
18140;SDS011;9196;49.194;12.526;2023-06-14T04:26:20;5.67;;;5.07;;
18140;SDS011;9196;49.194;12.526;2023-06-14T04:28:48;6.37;;;5.37;;
18140;SDS011;9196;49.194;12.526;2023-06-14T04:31:16;7.50;;;5.07;;
18140;SDS011;9196;49.194;12.526;2023-06-14T04:33:44;6.20;;;5.20;;
18140;SDS011;9196;49.194;12.526;2023-06-14T04:36:12;7.40;;;5.07;;
18140;SDS011;9196;49.194;12.526;2023-06-14T04:38:42;5.60;;;4.10;;
18140;SDS011;9196;49.194;12.526;2023-06-14T04:41:11;4.93;;;4.43;;
18140;SDS011;9196;49.194;12.526;2023-06-14T04:43:38;6.17;;;5.57;;
18140;SDS011;9196;49.194;12.526;2023-06-14T04:46:08;5.27;;;4.77;;
18140;SDS011;9196;49.194;12.526;2023-06-14T04:48:36;5.87;;;5.27;;
18140;SDS011;9196;49.194;12.526;2023-06-14T04:51:07;6.63;;;5.50;;
18140;SDS011;9196;49.194;12.526;2023-06-14T04:53:35;7.40;;;5.43;;
18140;SDS011;9196;49.194;12.526;2023-06-14T04:56:02;5.00;;;4.60;;
18140;SDS011;9196;49.194;12.526;2023-06-14T04:58:29;5.33;;;4.40;;
18140;SDS011;9196;49.194;12.526;2023-06-14T05:00:56;7.70;;;4.90;;
18140;SDS011;9196;49.194;12.526;2023-06-14T05:03:24;5.83;;;5.10;;
18140;SDS011;9196;49.194;12.526;2023-06-14T05:05:52;4.80;;;4.40;;
18140;SDS011;9196;49.194;12.526;2023-06-14T05:08:21;5.00;;;4.53;;
18140;SDS011;9196;49.194;12.526;2023-06-14T05:10:49;5.67;;;5.13;;
18140;SDS011;9196;49.194;12.526;2023-06-14T05:13:16;6.33;;;5.73;;
18140;SDS011;9196;49.194;12.526;2023-06-14T05:15:44;5.50;;;4.93;;
18140;SDS011;9196;49.194;12.526;2023-06-14T05:18:12;6.60;;;5.97;;
18140;SDS011;9196;49.194;12.526;2023-06-14T05:20:40;6.80;;;5.80;;
18140;SDS011;9196;49.194;12.526;2023-06-14T05:23:08;6.07;;;5.57;;
18140;SDS011;9196;49.194;12.526;2023-06-14T05:25:41;5.40;;;4.70;;
18140;SDS011;9196;49.194;12.526;2023-06-14T05:28:08;5.67;;;4.73;;
18140;SDS011;9196;49.194;12.526;2023-06-14T05:30:37;8.83;;;5.67;;
18140;SDS011;9196;49.194;12.526;2023-06-14T05:33:05;6.93;;;5.20;;
18140;SDS011;9196;49.194;12.526;2023-06-14T05:35:32;6.53;;;5.83;;
18140;SDS011;9196;49.194;12.526;2023-06-14T05:37:58;6.73;;;5.20;;
18140;SDS011;9196;49.194;12.526;2023-06-14T05:40:25;8.80;;;5.00;;
18140;SDS011;9196;49.194;12.526;2023-06-14T05:42:53;9.27;;;5.83;;
18140;SDS011;9196;49.194;12.526;2023-06-14T05:45:20;5.70;;;5.17;;
18140;SDS011;9196;49.194;12.526;2023-06-14T05:47:47;6.20;;;4.67;;
18140;SDS011;9196;49.194;12.526;2023-06-14T05:50:13;4.73;;;4.33;;
18140;SDS011;9196;49.194;12.526;2023-06-14T05:52:40;10.60;;;5.43;;
18140;SDS011;9196;49.194;12.526;2023-06-14T05:55:08;11.30;;;5.53;;
18140;SDS011;9196;49.194;12.526;2023-06-14T05:57:37;11.40;;;5.97;;
18140;SDS011;9196;49.194;12.526;2023-06-14T06:00:06;7.93;;;6.30;;
18140;SDS011;9196;49.194;12.526;2023-06-14T06:02:36;6.10;;;4.73;;
18140;SDS011;9196;49.194;12.526;2023-06-14T06:05:03;8.10;;;5.30;;
18140;SDS011;9196;49.194;12.526;2023-06-14T06:07:31;6.33;;;5.73;;
18140;SDS011;9196;49.194;12.526;2023-06-14T06:09:58;8.93;;;5.60;;
18140;SDS011;9196;49.194;12.526;2023-06-14T06:12:24;8.37;;;5.90;;
18140;SDS011;9196;49.194;12.526;2023-06-14T06:14:51;6.40;;;5.80;;
18140;SDS011;9196;49.194;12.526;2023-06-14T06:17:20;7.30;;;5.40;;
18140;SDS011;9196;49.194;12.526;2023-06-14T06:19:46;6.07;;;5.37;;
18140;SDS011;9196;49.194;12.526;2023-06-14T06:22:13;8.20;;;5.93;;
18140;SDS011;9196;49.194;12.526;2023-06-14T06:24:40;7.00;;;6.20;;
18140;SDS011;9196;49.194;12.526;2023-06-14T06:27:07;9.50;;;5.90;;
18140;SDS011;9196;49.194;12.526;2023-06-14T06:29:34;6.30;;;5.70;;
18140;SDS011;9196;49.194;12.526;2023-06-14T06:32:00;6.90;;;6.20;;
18140;SDS011;9196;49.194;12.526;2023-06-14T06:34:29;6.17;;;5.37;;
18140;SDS011;9196;49.194;12.526;2023-06-14T06:36:56;8.00;;;6.23;;
18140;SDS011;9196;49.194;12.526;2023-06-14T06:39:24;8.27;;;5.50;;
18140;SDS011;9196;49.194;12.526;2023-06-14T06:41:51;6.33;;;5.73;;
18140;SDS011;9196;49.194;12.526;2023-06-14T06:44:18;7.10;;;6.27;;
18140;SDS011;9196;49.194;12.526;2023-06-14T06:46:45;9.63;;;5.53;;
18140;SDS011;9196;49.194;12.526;2023-06-14T06:49:11;7.03;;;5.73;;
18140;SDS011;9196;49.194;12.526;2023-06-14T06:51:42;8.67;;;6.50;;
18140;SDS011;9196;49.194;12.526;2023-06-14T06:54:09;6.93;;;6.33;;
18140;SDS011;9196;49.194;12.526;2023-06-14T06:56:36;5.57;;;5.17;;
18140;SDS011;9196;49.194;12.526;2023-06-14T06:59:03;5.97;;;5.43;;
18140;SDS011;9196;49.194;12.526;2023-06-14T07:01:30;9.03;;;5.50;;
18140;SDS011;9196;49.194;12.526;2023-06-14T07:03:58;5.47;;;4.97;;
18140;SDS011;9196;49.194;12.526;2023-06-14T07:06:25;5.17;;;4.77;;
18140;SDS011;9196;49.194;12.526;2023-06-14T07:08:54;5.13;;;4.63;;
18140;SDS011;9196;49.194;12.526;2023-06-14T07:11:26;9.13;;;5.90;;
18140;SDS011;9196;49.194;12.526;2023-06-14T07:13:53;6.87;;;6.17;;
18140;SDS011;9196;49.194;12.526;2023-06-14T07:16:20;4.60;;;4.30;;
18140;SDS011;9196;49.194;12.526;2023-06-14T07:18:46;8.87;;;4.67;;
18140;SDS011;9196;49.194;12.526;2023-06-14T07:21:13;9.43;;;5.20;;
18140;SDS011;9196;49.194;12.526;2023-06-14T07:23:40;8.23;;;5.63;;
18140;SDS011;9196;49.194;12.526;2023-06-14T07:26:08;6.10;;;5.50;;
18140;SDS011;9196;49.194;12.526;2023-06-14T07:28:35;12.37;;;4.73;;
18140;SDS011;9196;49.194;12.526;2023-06-14T07:31:02;9.03;;;4.33;;
18140;SDS011;9196;49.194;12.526;2023-06-14T07:33:29;9.60;;;5.70;;
18140;SDS011;9196;49.194;12.526;2023-06-14T07:35:56;7.10;;;4.80;;
18140;SDS011;9196;49.194;12.526;2023-06-14T07:38:22;11.03;;;4.83;;
18140;SDS011;9196;49.194;12.526;2023-06-14T07:40:49;9.43;;;4.73;;
18140;SDS011;9196;49.194;12.526;2023-06-14T07:43:17;6.27;;;4.97;;
18140;SDS011;9196;49.194;12.526;2023-06-14T07:45:44;5.23;;;4.60;;
18140;SDS011;9196;49.194;12.526;2023-06-14T07:48:11;5.40;;;4.90;;
18140;SDS011;9196;49.194;12.526;2023-06-14T07:50:38;9.30;;;5.07;;
18140;SDS011;9196;49.194;12.526;2023-06-14T07:53:06;5.50;;;5.00;;
18140;SDS011;9196;49.194;12.526;2023-06-14T07:55:33;5.73;;;4.60;;
18140;SDS011;9196;49.194;12.526;2023-06-14T07:58:01;5.27;;;4.77;;
18140;SDS011;9196;49.194;12.526;2023-06-14T08:00:30;6.10;;;4.90;;
18140;SDS011;9196;49.194;12.526;2023-06-14T08:02:57;4.77;;;4.37;;
18140;SDS011;9196;49.194;12.526;2023-06-14T08:05:24;4.70;;;4.33;;
18140;SDS011;9196;49.194;12.526;2023-06-14T08:07:51;4.67;;;4.27;;
18140;SDS011;9196;49.194;12.526;2023-06-14T08:10:18;4.57;;;4.27;;
18140;SDS011;9196;49.194;12.526;2023-06-14T08:12:45;5.10;;;4.60;;
18140;SDS011;9196;49.194;12.526;2023-06-14T08:15:13;4.30;;;4.00;;
18140;SDS011;9196;49.194;12.526;2023-06-14T08:17:41;5.17;;;4.67;;
18140;SDS011;9196;49.194;12.526;2023-06-14T08:20:09;5.47;;;4.97;;
18140;SDS011;9196;49.194;12.526;2023-06-14T08:22:36;5.87;;;4.20;;
18140;SDS011;9196;49.194;12.526;2023-06-14T08:25:04;4.40;;;3.97;;
18140;SDS011;9196;49.194;12.526;2023-06-14T08:27:32;4.70;;;4.30;;
18140;SDS011;9196;49.194;12.526;2023-06-14T08:29:58;4.70;;;4.23;;
18140;SDS011;9196;49.194;12.526;2023-06-14T08:32:25;4.43;;;4.03;;
18140;SDS011;9196;49.194;12.526;2023-06-14T08:34:53;7.10;;;4.50;;
18140;SDS011;9196;49.194;12.526;2023-06-14T08:37:20;7.77;;;3.90;;
18140;SDS011;9196;49.194;12.526;2023-06-14T08:39:47;4.40;;;4.00;;
18140;SDS011;9196;49.194;12.526;2023-06-14T08:42:14;5.13;;;3.67;;
18140;SDS011;9196;49.194;12.526;2023-06-14T08:44:41;5.40;;;4.90;;
18140;SDS011;9196;49.194;12.526;2023-06-14T08:47:08;9.50;;;5.40;;
18140;SDS011;9196;49.194;12.526;2023-06-14T08:49:36;6.93;;;4.70;;
18140;SDS011;9196;49.194;12.526;2023-06-14T08:52:06;5.17;;;4.10;;
18140;SDS011;9196;49.194;12.526;2023-06-14T08:54:37;3.33;;;3.13;;
18140;SDS011;9196;49.194;12.526;2023-06-14T08:57:09;8.93;;;3.87;;
18140;SDS011;9196;49.194;12.526;2023-06-14T08:59:37;4.17;;;3.77;;
18140;SDS011;9196;49.194;12.526;2023-06-14T09:02:14;13.13;;;3.83;;
18140;SDS011;9196;49.194;12.526;2023-06-14T09:04:43;3.67;;;3.37;;
18140;SDS011;9196;49.194;12.526;2023-06-14T09:07:11;3.80;;;3.50;;
18140;SDS011;9196;49.194;12.526;2023-06-14T09:09:38;4.73;;;4.00;;
18140;SDS011;9196;49.194;12.526;2023-06-14T09:12:07;5.53;;;3.67;;
18140;SDS011;9196;49.194;12.526;2023-06-14T09:14:36;7.17;;;4.40;;
18140;SDS011;9196;49.194;12.526;2023-06-14T09:17:05;4.30;;;3.60;;
18140;SDS011;9196;49.194;12.526;2023-06-14T09:19:33;7.40;;;3.40;;
18140;SDS011;9196;49.194;12.526;2023-06-14T09:22:00;3.60;;;3.30;;
18140;SDS011;9196;49.194;12.526;2023-06-14T09:24:28;4.47;;;3.60;;
18140;SDS011;9196;49.194;12.526;2023-06-14T09:26:55;3.90;;;3.60;;
18140;SDS011;9196;49.194;12.526;2023-06-14T09:29:23;3.20;;;3.00;;
18140;SDS011;9196;49.194;12.526;2023-06-14T09:31:51;7.70;;;3.60;;
18140;SDS011;9196;49.194;12.526;2023-06-14T09:34:18;8.20;;;3.60;;
18140;SDS011;9196;49.194;12.526;2023-06-14T09:36:48;3.70;;;2.90;;
18140;SDS011;9196;49.194;12.526;2023-06-14T09:39:16;3.43;;;3.13;;
18140;SDS011;9196;49.194;12.526;2023-06-14T09:41:45;3.60;;;2.80;;
18140;SDS011;9196;49.194;12.526;2023-06-14T09:44:12;4.40;;;3.07;;
18140;SDS011;9196;49.194;12.526;2023-06-14T09:46:39;6.97;;;4.33;;
18140;SDS011;9196;49.194;12.526;2023-06-14T09:49:06;4.13;;;3.20;;
18140;SDS011;9196;49.194;12.526;2023-06-14T09:51:34;3.30;;;3.07;;
18140;SDS011;9196;49.194;12.526;2023-06-14T09:54:08;3.87;;;3.57;;
18140;SDS011;9196;49.194;12.526;2023-06-14T09:56:41;11.60;;;3.60;;
18140;SDS011;9196;49.194;12.526;2023-06-14T09:59:12;7.03;;;4.23;;
18140;SDS011;9196;49.194;12.526;2023-06-14T10:01:41;4.00;;;3.57;;
18140;SDS011;9196;49.194;12.526;2023-06-14T10:04:09;4.30;;;3.90;;
18140;SDS011;9196;49.194;12.526;2023-06-14T10:06:37;3.40;;;3.10;;
18140;SDS011;9196;49.194;12.526;2023-06-14T10:09:07;3.67;;;3.07;;
18140;SDS011;9196;49.194;12.526;2023-06-14T10:11:35;3.30;;;3.07;;
18140;SDS011;9196;49.194;12.526;2023-06-14T10:14:04;6.93;;;3.30;;
18140;SDS011;9196;49.194;12.526;2023-06-14T10:16:34;4.97;;;3.87;;
18140;SDS011;9196;49.194;12.526;2023-06-14T10:19:07;12.03;;;3.50;;
18140;SDS011;9196;49.194;12.526;2023-06-14T10:21:41;3.43;;;3.23;;
18140;SDS011;9196;49.194;12.526;2023-06-14T10:24:18;7.10;;;3.50;;
18140;SDS011;9196;49.194;12.526;2023-06-14T10:26:53;3.70;;;3.40;;
18140;SDS011;9196;49.194;12.526;2023-06-14T10:29:22;3.93;;;2.87;;
18140;SDS011;9196;49.194;12.526;2023-06-14T10:31:53;4.03;;;3.53;;
18140;SDS011;9196;49.194;12.526;2023-06-14T10:34:23;4.03;;;3.53;;
18140;SDS011;9196;49.194;12.526;2023-06-14T10:37:01;6.63;;;3.90;;
18140;SDS011;9196;49.194;12.526;2023-06-14T10:39:29;8.03;;;3.50;;
18140;SDS011;9196;49.194;12.526;2023-06-14T10:41:57;3.17;;;2.97;;
18140;SDS011;9196;49.194;12.526;2023-06-14T10:44:30;6.83;;;3.40;;
18140;SDS011;9196;49.194;12.526;2023-06-14T10:47:09;5.63;;;3.57;;
18140;SDS011;9196;49.194;12.526;2023-06-14T10:49:38;5.37;;;3.80;;
18140;SDS011;9196;49.194;12.526;2023-06-14T10:52:10;11.83;;;3.70;;
18140;SDS011;9196;49.194;12.526;2023-06-14T10:54:55;4.73;;;3.20;;
18140;SDS011;9196;49.194;12.526;2023-06-14T10:57:25;3.67;;;3.00;;
18140;SDS011;9196;49.194;12.526;2023-06-14T10:59:52;5.30;;;3.20;;
18140;SDS011;9196;49.194;12.526;2023-06-14T11:02:34;3.67;;;3.47;;
18140;SDS011;9196;49.194;12.526;2023-06-14T11:05:21;4.30;;;3.40;;
18140;SDS011;9196;49.194;12.526;2023-06-14T11:07:55;3.83;;;3.30;;
18140;SDS011;9196;49.194;12.526;2023-06-14T11:10:45;5.50;;;3.37;;
18140;SDS011;9196;49.194;12.526;2023-06-14T11:13:12;3.93;;;3.63;;
18140;SDS011;9196;49.194;12.526;2023-06-14T11:15:43;2.70;;;2.50;;
18140;SDS011;9196;49.194;12.526;2023-06-14T11:18:12;4.33;;;3.93;;
18140;SDS011;9196;49.194;12.526;2023-06-14T11:20:41;3.03;;;2.83;;
18140;SDS011;9196;49.194;12.526;2023-06-14T11:23:08;5.77;;;3.63;;
18140;SDS011;9196;49.194;12.526;2023-06-14T11:25:35;3.20;;;3.00;;
18140;SDS011;9196;49.194;12.526;2023-06-14T11:28:02;5.03;;;3.83;;
18140;SDS011;9196;49.194;12.526;2023-06-14T11:30:29;3.63;;;3.33;;
18140;SDS011;9196;49.194;12.526;2023-06-14T11:32:56;6.60;;;3.40;;
18140;SDS011;9196;49.194;12.526;2023-06-14T11:35:25;3.17;;;2.87;;
18140;SDS011;9196;49.194;12.526;2023-06-14T11:37:52;7.00;;;3.40;;
18140;SDS011;9196;49.194;12.526;2023-06-14T11:40:23;3.55;;;3.17;;
18140;SDS011;9196;49.194;12.526;2023-06-14T11:42:54;5.07;;;3.07;;
18140;SDS011;9196;49.194;12.526;2023-06-14T11:45:24;3.27;;;3.07;;
18140;SDS011;9196;49.194;12.526;2023-06-14T11:47:51;5.20;;;3.00;;
18140;SDS011;9196;49.194;12.526;2023-06-14T11:50:21;6.73;;;3.60;;
18140;SDS011;9196;49.194;12.526;2023-06-14T11:52:53;3.40;;;3.20;;
18140;SDS011;9196;49.194;12.526;2023-06-14T11:55:20;3.57;;;3.27;;
18140;SDS011;9196;49.194;12.526;2023-06-14T11:57:47;4.90;;;4.33;;
18140;SDS011;9196;49.194;12.526;2023-06-14T12:00:15;3.50;;;3.30;;
18140;SDS011;9196;49.194;12.526;2023-06-14T12:02:42;7.93;;;4.30;;
18140;SDS011;9196;49.194;12.526;2023-06-14T12:05:20;3.80;;;3.50;;
18140;SDS011;9196;49.194;12.526;2023-06-14T12:07:46;6.90;;;3.23;;
18140;SDS011;9196;49.194;12.526;2023-06-14T12:10:15;3.67;;;3.40;;
18140;SDS011;9196;49.194;12.526;2023-06-14T12:12:42;3.20;;;2.95;;
18140;SDS011;9196;49.194;12.526;2023-06-14T12:15:09;5.10;;;3.40;;
18140;SDS011;9196;49.194;12.526;2023-06-14T12:17:37;6.80;;;3.73;;
18140;SDS011;9196;49.194;12.526;2023-06-14T12:20:07;7.50;;;3.80;;
18140;SDS011;9196;49.194;12.526;2023-06-14T12:22:36;5.60;;;3.23;;
18140;SDS011;9196;49.194;12.526;2023-06-14T12:25:03;3.70;;;3.40;;
18140;SDS011;9196;49.194;12.526;2023-06-14T12:27:32;4.80;;;4.40;;
18140;SDS011;9196;49.194;12.526;2023-06-14T12:29:59;3.80;;;3.50;;
18140;SDS011;9196;49.194;12.526;2023-06-14T12:32:27;7.13;;;3.37;;
18140;SDS011;9196;49.194;12.526;2023-06-14T12:34:54;4.40;;;3.30;;
18140;SDS011;9196;49.194;12.526;2023-06-14T12:37:21;4.10;;;3.70;;
18140;SDS011;9196;49.194;12.526;2023-06-14T12:39:47;3.30;;;2.90;;
18140;SDS011;9196;49.194;12.526;2023-06-14T12:42:15;7.73;;;3.60;;
18140;SDS011;9196;49.194;12.526;2023-06-14T12:44:44;5.13;;;3.40;;
18140;SDS011;9196;49.194;12.526;2023-06-14T12:47:10;3.00;;;2.77;;
18140;SDS011;9196;49.194;12.526;2023-06-14T12:49:38;9.07;;;3.33;;
18140;SDS011;9196;49.194;12.526;2023-06-14T12:52:06;3.30;;;3.03;;
18140;SDS011;9196;49.194;12.526;2023-06-14T12:54:34;8.10;;;3.17;;
18140;SDS011;9196;49.194;12.526;2023-06-14T12:57:01;3.83;;;2.90;;
18140;SDS011;9196;49.194;12.526;2023-06-14T12:59:28;3.77;;;3.30;;
18140;SDS011;9196;49.194;12.526;2023-06-14T13:01:59;3.40;;;3.10;;
18140;SDS011;9196;49.194;12.526;2023-06-14T13:04:36;4.73;;;3.57;;
18140;SDS011;9196;49.194;12.526;2023-06-14T13:07:03;10.43;;;6.03;;
18140;SDS011;9196;49.194;12.526;2023-06-14T13:09:30;5.37;;;3.67;;
18140;SDS011;9196;49.194;12.526;2023-06-14T13:11:57;4.17;;;3.07;;
18140;SDS011;9196;49.194;12.526;2023-06-14T13:14:24;5.03;;;3.40;;
18140;SDS011;9196;49.194;12.526;2023-06-14T13:16:51;3.77;;;3.47;;
18140;SDS011;9196;49.194;12.526;2023-06-14T13:19:19;3.20;;;3.00;;
18140;SDS011;9196;49.194;12.526;2023-06-14T13:21:46;4.50;;;3.23;;
18140;SDS011;9196;49.194;12.526;2023-06-14T13:24:13;3.63;;;3.33;;
18140;SDS011;9196;49.194;12.526;2023-06-14T13:26:40;8.03;;;3.23;;
18140;SDS011;9196;49.194;12.526;2023-06-14T13:29:07;7.43;;;3.70;;
18140;SDS011;9196;49.194;12.526;2023-06-14T13:31:34;6.13;;;3.10;;
18140;SDS011;9196;49.194;12.526;2023-06-14T13:34:01;8.93;;;3.27;;
18140;SDS011;9196;49.194;12.526;2023-06-14T13:36:29;5.00;;;3.80;;
18140;SDS011;9196;49.194;12.526;2023-06-14T13:38:56;3.00;;;2.80;;
18140;SDS011;9196;49.194;12.526;2023-06-14T13:41:23;3.30;;;3.10;;
18140;SDS011;9196;49.194;12.526;2023-06-14T13:43:56;5.10;;;3.10;;
18140;SDS011;9196;49.194;12.526;2023-06-14T13:46:23;3.07;;;2.87;;
18140;SDS011;9196;49.194;12.526;2023-06-14T13:48:50;2.83;;;2.73;;
18140;SDS011;9196;49.194;12.526;2023-06-14T13:51:17;3.83;;;3.53;;
18140;SDS011;9196;49.194;12.526;2023-06-14T13:53:47;9.17;;;7.40;;
18140;SDS011;9196;49.194;12.526;2023-06-14T13:56:15;12.10;;;6.67;;
18140;SDS011;9196;49.194;12.526;2023-06-14T13:58:43;8.70;;;3.93;;
18140;SDS011;9196;49.194;12.526;2023-06-14T14:01:09;2.97;;;2.60;;
18140;SDS011;9196;49.194;12.526;2023-06-14T14:03:37;3.10;;;2.90;;
18140;SDS011;9196;49.194;12.526;2023-06-14T14:06:04;3.17;;;2.80;;
18140;SDS011;9196;49.194;12.526;2023-06-14T14:08:32;3.50;;;2.47;;
18140;SDS011;9196;49.194;12.526;2023-06-14T14:11:00;3.37;;;2.77;;
18140;SDS011;9196;49.194;12.526;2023-06-14T14:13:27;2.87;;;2.60;;
18140;SDS011;9196;49.194;12.526;2023-06-14T14:15:54;3.20;;;3.00;;
18140;SDS011;9196;49.194;12.526;2023-06-14T14:18:20;3.93;;;3.63;;
18140;SDS011;9196;49.194;12.526;2023-06-14T14:20:47;3.53;;;3.33;;
18140;SDS011;9196;49.194;12.526;2023-06-14T14:23:14;9.20;;;3.10;;
18140;SDS011;9196;49.194;12.526;2023-06-14T14:25:41;3.27;;;2.97;;
18140;SDS011;9196;49.194;12.526;2023-06-14T14:28:09;3.20;;;3.00;;
18140;SDS011;9196;49.194;12.526;2023-06-14T14:30:36;3.83;;;3.10;;
18140;SDS011;9196;49.194;12.526;2023-06-14T14:33:04;4.40;;;2.93;;
18140;SDS011;9196;49.194;12.526;2023-06-14T14:35:31;4.03;;;3.60;;
18140;SDS011;9196;49.194;12.526;2023-06-14T14:37:58;4.23;;;2.87;;
18140;SDS011;9196;49.194;12.526;2023-06-14T14:40:25;5.53;;;2.90;;
18140;SDS011;9196;49.194;12.526;2023-06-14T14:42:52;3.27;;;2.97;;
18140;SDS011;9196;49.194;12.526;2023-06-14T14:45:20;6.87;;;3.23;;
18140;SDS011;9196;49.194;12.526;2023-06-14T14:47:47;4.80;;;3.57;;
18140;SDS011;9196;49.194;12.526;2023-06-14T14:50:14;5.33;;;2.70;;
18140;SDS011;9196;49.194;12.526;2023-06-14T14:52:41;9.13;;;3.03;;
18140;SDS011;9196;49.194;12.526;2023-06-14T14:55:08;3.60;;;3.30;;